LKNM weather

Nove Mesto Airport
Nové Město Nad Metují Moravě, Hradec Králové Region, Czech Republic

Public forecast

Using degrees Celsius for public forecast. Weather courtesy of forecast.io.

Closest aviation weather report (METAR) to Nove Mesto Airport

Closest report is Pardubice Airport, 25.5 nm (47.3 km) SW. Retrieved 2019/12/11 10:00 UTC (56 minutes ago):

LKPD 111000Z 09005KT CAVOK 02/M03 Q1018 NOSIG

Closest aviation forecast (TAF) to Nove Mesto Airport

Closest forecast is Pardubice Airport, 25.5 nm (47.3 km) SW. Retrieved 2019/12/11 06:00 UTC (5 hours ago):

TAF LKPD 110500Z 1106/1206 10006KT CAVOK TEMPO 1106/1112 VRB02KT BECMG 1203/1205 BKN030